KAQW/AQW METAR and TAF weather

Enter ICAO airport designator
Station Type Date Time Source
KAQW METAR 2022/01/19 18:52 UTC NOAA

KAQW 191852Z AUTO 23014G23KT 10SM FEW095 06/M06 A2985 RMK AO2 SLPNO T00561061


Station Type Date Time Source
KAQW Decoded METAR 2022/01/19 18:52 UTC NOAA

N ADAMS HARRIMAN-AND-WEST, MA, United States (KAQW) 42-42N 073-10W 201M
Jan 19, 2022 - 01:52 PM EST / 2022.01.19 1852 UTC
Wind: from the SW (230 degrees) at 16 MPH (14 KT) gusting to 26 MPH (23 KT):0
Visibility: 10 mile(s):0
Sky conditions: mostly clear
Temperature: 42.1 F (5.6 C)
Dew Point: 21.0 F (-6.1 C)
Relative Humidity: 42%
Pressure (altimeter): 29.85 in. Hg (1010 hPa)
ob: KAQW 191852Z AUTO 23014G23KT 10SM FEW095 06/M06 A2985 RMK AO2 SLPNO T00561061
cycle: 19

Station Type Date Time Source
KAQW TAF UTC NOAA

Error!

Example: see airport list